»·PEaware :: N924DL KFLG-KSBA

N924DL :: KFLG-KSBA

FLIGHT INFORMATION

Flight Status: Arrived
Operator: Privately registered:
United States
More flights under this callsign
Pilot: Drew L. (13237)
Aircraft: SOCATA TBM-900
(TBM9)
More flights by this aircraft type
Origin: KFLG Flagstaff Pulliam
United States
Destination: KSBA Santa Barbara Mun
United States
More flights between these airports :: More routes between these airports
Route: FLG1 OATES EED HEC PITBL1
File this flight plan on PilotEdge
Remarks: RMK / SIMBRIEF
Altitude:
(Current/Filed)
30,000ft
Speed:
(Current/Filed)
326kts
Departed: 27-Jul-20 09:47 AM
Arrived: 27-Jul-20 11:36 AM
Distance/Time
Traveled:
405nm/1:49
Distance/Time
To Go:
Arrived

Flight Plot

Page will automatically refresh every two minutes.


Map Options




Map Legend


Flown Route
Filed Route
Departure Airport
Arrival Airport
Navaid (VOR, NDB)
Fix

Horizontal Profiles

Position Reports

Time Latitude Longitude Heading Altitude Ground
Speed
27-Jul-20 09:05 35.136005 -111.676292 222 7004ft 0kts
27-Jul-20 09:06 35.136005 -111.676292 222 7004ft 0kts
27-Jul-20 09:07 35.136005 -111.676292 222 7004ft 0kts
27-Jul-20 09:08 35.136005 -111.676292 222 7004ft 0kts
27-Jul-20 09:09 35.136005 -111.676292 222 7004ft 0kts
27-Jul-20 09:10 35.136005 -111.676292 222 7004ft 0kts
27-Jul-20 09:11 35.136005 -111.676292 222 7004ft 0kts
27-Jul-20 09:12 35.136005 -111.676292 222 7004ft 0kts
27-Jul-20 09:13 35.136005 -111.676292 222 7004ft 0kts
27-Jul-20 09:14 35.136005 -111.676292 222 7004ft 0kts
27-Jul-20 09:15 35.136005 -111.676292 222 7004ft 0kts
27-Jul-20 09:16 35.136005 -111.676292 222 7004ft 0kts
27-Jul-20 09:17 35.136005 -111.676292 222 7004ft 0kts
27-Jul-20 09:18 35.136005 -111.676292 222 7004ft 0kts
27-Jul-20 09:19 35.136005 -111.676292 222 7004ft 0kts
27-Jul-20 09:20 35.136005 -111.676292 222 7004ft 0kts
27-Jul-20 09:21 35.136005 -111.676292 222 7004ft 0kts
27-Jul-20 09:22 35.136005 -111.676292 222 7004ft 0kts
27-Jul-20 09:23 35.136005 -111.676292 222 7004ft 0kts
27-Jul-20 09:24 35.136005 -111.676292 222 7004ft 0kts
27-Jul-20 09:25 35.136005 -111.676292 222 7004ft 0kts
27-Jul-20 09:26 35.136005 -111.676292 222 7004ft 0kts
27-Jul-20 09:27 35.136005 -111.676292 222 7004ft 0kts
27-Jul-20 09:28 35.136005 -111.676292 222 7004ft 0kts
27-Jul-20 09:29 35.136005 -111.676292 222 7004ft 0kts
27-Jul-20 09:30 35.135976 -111.676326 222 7004ft 0kts
27-Jul-20 09:31 35.135976 -111.676326 222 7004ft 0kts
27-Jul-20 09:32 35.135976 -111.676326 222 7004ft 0kts
27-Jul-20 09:33 35.135976 -111.676326 222 7004ft 0kts
27-Jul-20 09:34 35.135976 -111.676326 222 7004ft 0kts
27-Jul-20 09:35 35.135961 -111.676339 211 7004ft 2kts
27-Jul-20 09:36 35.138551 -111.672927 40 7004ft 24kts
27-Jul-20 09:37 35.144005 -111.667085 40 6992ft 18kts
27-Jul-20 09:38 35.148309 -111.662469 41 6980ft 28kts
27-Jul-20 09:39 35.149879 -111.660755 62 6980ft 0kts
27-Jul-20 09:40 35.149879 -111.660755 62 6980ft 0kts
27-Jul-20 09:41 35.149879 -111.660755 62 6980ft 0kts
27-Jul-20 09:42 35.149879 -111.660755 62 6980ft 0kts
27-Jul-20 09:43 35.149879 -111.660755 62 6980ft 0kts
27-Jul-20 09:44 35.149879 -111.660755 62 6980ft 0kts
27-Jul-20 09:45 35.149293 -111.659814 175 6983ft 12kts
27-Jul-20 09:46 35.137765 -111.671843 220 7251ft 126kts
27-Jul-20 09:47 35.098974 -111.680173 184 9060ft 169kts
27-Jul-20 09:48 35.052583 -111.685984 185 11274ft 166kts
27-Jul-20 09:49 35.005742 -111.692025 185 13358ft 172kts
27-Jul-20 09:50 34.957984 -111.698157 184 15419ft 175kts
27-Jul-20 09:51 34.909150 -111.704407 184 17241ft 179kts
27-Jul-20 09:52 34.869629 -111.733390 263 19111ft 208kts
27-Jul-20 09:53 34.867589 -111.805599 263 20805ft 217kts
27-Jul-20 09:54 34.865547 -111.879954 263 22507ft 222kts
27-Jul-20 09:55 34.863439 -111.955119 263 24234ft 224kts
27-Jul-20 09:56 34.861249 -112.031501 262 25763ft 227kts
27-Jul-20 09:57 34.858974 -112.109237 262 27341ft 231kts
27-Jul-20 09:58 34.856627 -112.187653 262 28877ft 233kts
27-Jul-20 09:59 34.854195 -112.267154 262 30205ft 237kts
27-Jul-20 10:00 34.851433 -112.354838 263 30245ft 277kts
27-Jul-20 10:01 34.848318 -112.452436 263 30235ft 297kts
27-Jul-20 10:03 34.844960 -112.554849 263 30231ft 305kts
27-Jul-20 10:04 34.841454 -112.658890 263 30231ft 307kts
27-Jul-20 10:05 34.838209 -112.753105 263 30231ft 309kts
27-Jul-20 10:06 34.834541 -112.857178 263 30229ft 302kts
27-Jul-20 10:07 34.830883 -112.958331 262 30230ft 296kts
27-Jul-20 10:08 34.827184 -113.058233 262 30227ft 293kts
27-Jul-20 10:09 34.823436 -113.157444 262 30178ft 292kts
27-Jul-20 10:10 34.819609 -113.256477 262 30129ft 292kts
27-Jul-20 10:11 34.815730 -113.354947 262 30110ft 290kts
27-Jul-20 10:12 34.811813 -113.452345 262 30108ft 284kts
27-Jul-20 10:13 34.807865 -113.548522 262 30109ft 282kts
27-Jul-20 10:14 34.803886 -113.643660 262 30109ft 281kts
27-Jul-20 10:15 34.799823 -113.739093 262 30112ft 281kts
27-Jul-20 10:16 34.795701 -113.834141 262 30086ft 281kts
27-Jul-20 10:17 34.791496 -113.929365 262 30040ft 281kts
27-Jul-20 10:18 34.787223 -114.024361 262 29991ft 281kts
27-Jul-20 10:19 34.782879 -114.119409 262 29954ft 281kts
27-Jul-20 10:19 34.779189 -114.198893 262 29926ft 281kts
27-Jul-20 10:21 34.773944 -114.309931 262 29909ft 280kts
27-Jul-20 10:22 34.769388 -114.404674 262 29910ft 279kts
27-Jul-20 10:22 34.766158 -114.483610 266 29905ft 282kts
27-Jul-20 10:24 34.768805 -114.594662 266 29910ft 281kts
27-Jul-20 10:24 34.770588 -114.674274 266 29914ft 281kts
27-Jul-20 10:25 34.772665 -114.769799 266 29915ft 281kts
27-Jul-20 10:26 34.774666 -114.865532 266 29917ft 281kts
27-Jul-20 10:27 34.776588 -114.960864 266 29919ft 281kts
27-Jul-20 10:28 34.778442 -115.056280 265 29920ft 280kts
27-Jul-20 10:29 34.780205 -115.151153 265 29919ft 278kts
27-Jul-20 10:30 34.781875 -115.245226 265 29930ft 275kts
27-Jul-20 10:31 34.783454 -115.338011 265 29966ft 273kts
27-Jul-20 10:32 34.784962 -115.430697 265 30001ft 273kts
27-Jul-20 10:33 34.786399 -115.523319 265 30027ft 272kts
27-Jul-20 10:34 34.787767 -115.615818 265 30050ft 272kts
27-Jul-20 10:35 34.789066 -115.708721 264 30077ft 273kts
27-Jul-20 10:36 34.790295 -115.801508 264 30076ft 274kts
27-Jul-20 10:37 34.791452 -115.894114 264 30076ft 274kts
27-Jul-20 10:38 34.792545 -115.987271 264 30075ft 274kts
27-Jul-20 10:39 34.793566 -116.080428 264 30075ft 274kts
27-Jul-20 10:40 34.794514 -116.173292 264 30074ft 274kts
27-Jul-20 10:41 34.795392 -116.266199 264 30053ft 274kts
27-Jul-20 10:42 34.796200 -116.359234 264 30031ft 274kts
27-Jul-20 10:43 34.796933 -116.452271 264 30018ft 274kts
27-Jul-20 10:44 34.785319 -116.542308 255 30017ft 269kts
27-Jul-20 10:45 34.772099 -116.631991 255 30017ft 269kts
27-Jul-20 10:46 34.758684 -116.722337 254 30022ft 269kts
27-Jul-20 10:47 34.745295 -116.812032 254 30021ft 269kts
27-Jul-20 10:48 34.731821 -116.901802 254 30020ft 269kts
27-Jul-20 10:49 34.718331 -116.991212 254 30013ft 269kts
27-Jul-20 10:50 34.704684 -117.081188 255 30005ft 268kts
27-Jul-20 10:51 34.691110 -117.170293 255 30000ft 267kts
27-Jul-20 10:52 34.677493 -117.259190 255 29999ft 267kts
27-Jul-20 10:53 34.663815 -117.348043 255 29998ft 266kts
27-Jul-20 10:54 34.650105 -117.436644 255 29998ft 266kts
27-Jul-20 10:55 34.636340 -117.525157 255 29998ft 266kts
27-Jul-20 10:56 34.622483 -117.613809 255 29997ft 266kts
27-Jul-20 10:57 34.608569 -117.702399 254 30019ft 266kts
27-Jul-20 10:58 34.594639 -117.790668 254 30037ft 266kts
27-Jul-20 10:59 34.580653 -117.878848 254 30052ft 266kts
27-Jul-20 11:00 34.566573 -117.967199 254 30054ft 266kts
27-Jul-20 11:01 34.552503 -118.055045 254 30054ft 266kts
27-Jul-20 11:02 34.538305 -118.143262 254 30052ft 266kts
27-Jul-20 11:03 34.524044 -118.231458 254 30048ft 266kts
27-Jul-20 11:04 34.509649 -118.319784 255 30041ft 265kts
27-Jul-20 11:05 34.495390 -118.407479 255 29806ft 269kts
27-Jul-20 11:06 34.480449 -118.499057 254 27796ft 276kts
27-Jul-20 11:07 34.465768 -118.588549 254 26363ft 270kts
27-Jul-20 11:08 34.450843 -118.678962 253 24354ft 281kts
27-Jul-20 11:09 34.436368 -118.766577 253 24012ft 244kts
27-Jul-20 11:10 34.422386 -118.848629 253 22893ft 262kts
27-Jul-20 11:11 34.407164 -118.937436 254 21310ft 273kts
27-Jul-20 11:12 34.391567 -119.028046 255 19710ft 275kts
27-Jul-20 11:13 34.376039 -119.119439 256 18097ft 277kts
27-Jul-20 11:14 34.360560 -119.211428 256 16484ft 278kts
27-Jul-20 11:15 34.344959 -119.303743 256 14874ft 280kts
27-Jul-20 11:16 34.329182 -119.396610 257 13262ft 281kts
27-Jul-20 11:17 34.313293 -119.489721 257 11652ft 282kts
27-Jul-20 11:18 34.302833 -119.582934 262 10041ft 275kts
27-Jul-20 11:19 34.293743 -119.673525 262 8422ft 265kts
27-Jul-20 11:20 34.285018 -119.761662 262 6809ft 261kts
27-Jul-20 11:21 34.276667 -119.846896 262 5986ft 242kts
27-Jul-20 11:22 34.274240 -119.928694 272 5988ft 243kts
27-Jul-20 11:23 34.278345 -120.012481 272 4563ft 248kts
27-Jul-20 11:24 34.282264 -120.093055 272 3988ft 226kts
27-Jul-20 11:25 34.285880 -120.167426 272 3996ft 220kts
27-Jul-20 11:26 34.333229 -120.195162 2 4001ft 224kts
27-Jul-20 11:27 34.394020 -120.184103 48 3977ft 225kts
27-Jul-20 11:28 34.423433 -120.122787 91 3991ft 202kts
27-Jul-20 11:29 34.423498 -120.056744 90 3248ft 180kts
27-Jul-20 11:30 34.424535 -120.001701 90 2464ft 149kts
27-Jul-20 11:31 34.425525 -119.952270 90 1585ft 128kts
27-Jul-20 11:32 34.426221 -119.916264 91 1045ft 101kts
27-Jul-20 11:33 34.426942 -119.881303 91 494ft 101kts
27-Jul-20 11:34 34.427615 -119.850150 88 16ft 70kts
27-Jul-20 11:35 34.425917 -119.838109 164 16ft 26kts
27-Jul-20 11:36 34.423101 -119.836209 152 16ft 4kts
27-Jul-20 11:37 34.423038 -119.836188 168 16ft 0kts
27-Jul-20 11:38 34.423038 -119.836188 168 16ft 0kts
27-Jul-20 11:39 34.423038 -119.836188 168 16ft 0kts
27-Jul-20 11:40 34.423038 -119.836188 168 16ft 0kts
27-Jul-20 11:41 34.423038 -119.836188 168 16ft 0kts
27-Jul-20 11:42 34.423038 -119.836188 168 16ft 0kts
27-Jul-20 11:43 34.423038 -119.836188 168 16ft 0kts
27-Jul-20 11:44 34.423038 -119.836188 168 16ft 0kts
27-Jul-20 11:45 34.423038 -119.836188 168 16ft 0kts
27-Jul-20 11:46 34.423038 -119.836188 168 16ft 0kts

Navigation Log

Ident Type
Flight plan parsing failed, navigation log unavailable